EGPU

Tiree Airport

Balemartine, United Kingdom
METAR EGPU 172050Z AUTO 31011KT 9999 SCT040/// 07/04 Q1020
Observed Flight Rules
Dec-17 @ 20:50 UTC (47 minutes ago) Visual Flight Rules
Wind Visibility Clouds
310° at 11 knots 10,000+ meters
  • Scattered at 4,000' AGL
Temperatures Readings
Current 7°C / 45°F
Dewpoint 4°C / 39°F
Humidity 81%
Altimeter 30.12" Hg
Pressure 1020 hPa
Elevation 12
METAR EGPU 172050Z AUTO 31011KT 9999 SCT040/// 07/04 Q1020
Observed Flight Rules
Dec-17 @ 20:50 UTC
(47 minutes ago)
VFR
Wind Visibility
310° at 11 knots 10,000+ meters
Clouds
  • Scattered at 4,000' AGL
Temperature Dewpoint
7°C / 45°F 4°C / 39°F
Humidity Altimeter Pressure
81% 30.12" Hg 1020 hPa